首页
METAR-TAF:

METAR-TAF

机场 :

吉隆坡国际机场

吉隆坡, 马来西亚

纬度: 02-44N, 经度: 101-42E, 海拔: 21米

当前天气观测

该预报发布于39分钟前的16:00 UTC
风速3节,风向多变
温度 27°C
湿度 89%
气压 1012 hPa
能见度10公里或以上
少量云层高于3000英尺

METAR: WMKK 011600Z VRB03KT 9999 FEW030 27/25 Q1012 NOSIG

时间: 00:39 (16:39 UTC)

预报

该预报发布于5小时和39分钟前的11:00 UTC
预报有效从01日的 12点(UTC)到 02日的 18点(UTC)
风速5节,风向北转东北
能见度10公里或以上
少量云层高于3000英尺
几率 30%
从 01日的 20点(UTC)到 01日的 22点(UTC)
风速2节,风向多变
能見度: 6000
短暂存在
从 02日的 03点(UTC)到 02日的 08点(UTC)
风速6节,风向南转南东
能見度: 4000
少量云层高于1000英尺
少量云层高于1700英尺, 积雨云.
散云层高于1800英尺
雷暴, 雨

TAF: WMKK 011100Z 0112/0218 02005KT 9999 FEW030 PROB30 0120/0122 VRB02KT 6000 TEMPO 0203/0208 16006KT 4000 TSRA FEW010 FEW017CB SCT018

超过4000个机场的气象观测和天气预报(METAR&TAF报告)。

可查询的气象台以黄色和红色小点在地图上表示。

将鼠标移到小点上方,可查看气象台名称。

然后点击查看天气观测和预报。

如需切换地图:点击带黑十字的绿色按钮放大地图;点击带横线的绿色按钮缩小地图;或者点击绿色箭头查看邻近地区的地图。


METAR-TAF: